Time;durP1;ratioP1;P1;durP2;ratioP2;P2;SDS_P1;SDS_P2;PMS_P1;PMS_P2;Temp;Humidity;BMP_temperature;BMP_pressure;BME280_temperature;BME280_humidity;BME280_pressure;Samples;Min_cycle;Max_cycle;Signal;HPM_P1;HPM_P2
2022/07/19 00:01:50;;;;;;;3.80;1.00;;;;;;;24.84;27.22;99228.31;4471581;32;20107;-82
2022/07/19 00:04:15;;;;;;;3.17;0.90;;;;;;;24.83;27.26;99236.56;4471516;32;20097;-82
2022/07/19 00:06:41;;;;;;;3.78;1.00;;;;;;;24.80;27.31;99237.75;4471582;32;20124;-83
2022/07/19 00:09:07;;;;;;;3.60;1.00;;;;;;;24.78;27.26;99234.34;4471585;32;20136;-83
2022/07/19 00:11:32;;;;;;;6.22;1.42;;;;;;;24.77;27.28;99231.84;4471466;32;20080;-82
2022/07/19 00:13:58;;;;;;;4.12;1.10;;;;;;;24.74;27.22;99224.91;4471371;32;20085;-83
2022/07/19 00:16:23;;;;;;;4.50;0.95;;;;;;;24.74;27.22;99235.69;4470439;32;20119;-83
2022/07/19 00:18:49;;;;;;;4.95;1.20;;;;;;;24.72;27.40;99235.00;4471476;32;20194;-83
2022/07/19 00:21:15;;;;;;;5.15;1.20;;;;;;;24.71;27.53;99233.34;4483766;32;20420;-83
2022/07/19 00:23:40;;;;;;;2.55;0.90;;;;;;;24.67;27.53;99227.44;4472728;32;20489;-83
2022/07/19 00:26:05;;;;;;;4.47;0.90;;;;;;;24.66;27.52;99235.66;4472848;32;20092;-83
2022/07/19 00:28:31;;;;;;;4.57;1.10;;;;;;;24.66;27.41;99232.97;4487015;32;20101;-82
2022/07/19 00:30:56;;;;;;;3.00;0.80;;;;;;;24.67;27.19;99231.97;4472727;32;20080;-82
2022/07/19 00:33:22;;;;;;;3.05;1.00;;;;;;;24.71;26.86;99233.34;4486773;32;20380;-83
2022/07/19 00:35:47;;;;;;;5.43;0.93;;;;;;;24.49;27.17;99235.59;4486958;32;20127;-83
2022/07/19 00:38:14;;;;;;;4.53;1.00;;;;;;;24.59;27.10;99231.94;4486093;32;20141;-82
2022/07/19 00:40:40;;;;;;;3.45;1.08;;;;;;;24.59;27.17;99227.41;4486899;32;20415;-82
2022/07/19 00:43:06;;;;;;;5.55;1.00;;;;;;;24.61;27.16;99232.59;4472792;32;20130;-83
2022/07/19 00:45:32;;;;;;;1.90;0.90;;;;;;;24.56;27.35;99235.81;4472748;32;20097;-82
2022/07/19 00:47:57;;;;;;;5.53;1.30;;;;;;;24.55;27.51;99234.13;4486871;32;20435;-82
2022/07/19 00:50:23;;;;;;;4.68;1.08;;;;;;;24.55;27.63;99242.22;4486801;32;20112;-82
2022/07/19 00:52:51;;;;;;;3.58;0.98;;;;;;;24.52;27.73;99246.06;4472530;32;20372;-82
2022/07/19 00:55:21;;;;;;;5.50;1.20;;;;;;;24.49;27.90;99242.81;4472611;32;20451;-82
2022/07/19 00:57:47;;;;;;;2.97;0.90;;;;;;;24.48;28.04;99239.28;4472392;32;20088;-82
2022/07/19 01:00:15;;;;;;;3.78;1.10;;;;;;;24.45;28.23;99233.38;4486789;32;20084;-82
2022/07/19 01:02:40;;;;;;;;;;;;;;;24.43;28.29;99230.00;4487086;32;20448;-82
2022/07/19 01:05:06;;;;;;;5.20;1.00;;;;;;;24.53;28.15;99233.44;4486808;32;20011;-81
2022/07/19 01:07:34;;;;;;;4.10;1.00;;;;;;;24.42;28.17;99228.31;4486916;32;20110;-82
2022/07/19 01:10:01;;;;;;;6.62;1.00;;;;;;;24.38;28.16;99229.63;4472870;32;20153;-82
2022/07/19 01:12:28;;;;;;;3.85;1.02;;;;;;;24.34;28.15;99227.28;4472671;32;20172;-82
2022/07/19 01:14:57;;;;;;;1.83;0.80;;;;;;;24.31;28.16;99222.19;4472648;32;20613;-82
2022/07/19 01:17:23;;;;;;;4.55;1.10;;;;;;;24.32;28.17;99231.97;4459156;32;20504;-82
2022/07/19 01:19:48;;;;;;;4.37;1.00;;;;;;;24.28;28.25;99227.06;4486331;32;20092;-82
2022/07/19 01:22:14;;;;;;;3.00;1.05;;;;;;;24.27;28.27;99228.06;4486303;32;20127;-82
2022/07/19 01:24:39;;;;;;;4.12;0.90;;;;;;;24.24;28.22;99226.56;4486419;32;20145;-82
2022/07/19 01:27:05;;;;;;;6.70;1.20;;;;;;;24.24;28.14;99225.69;4486287;32;20091;-82
2022/07/19 01:29:32;;;;;;;2.60;1.00;;;;;;;24.25;28.14;99225.53;4472156;32;20155;-82
2022/07/19 01:31:57;;;;;;;4.40;0.90;;;;;;;24.23;28.08;99224.84;4486391;32;20100;-82
2022/07/19 01:34:23;;;;;;;3.90;0.90;;;;;;;24.20;28.11;99214.41;4486180;32;20396;-82
2022/07/19 01:36:48;;;;;;;3.33;1.10;;;;;;;24.21;28.16;99207.19;4486231;32;20140;-82
2022/07/19 01:39:14;;;;;;;5.32;1.10;;;;;;;24.20;28.16;99216.25;4486270;32;20084;-82
2022/07/19 01:41:40;;;;;;;3.35;1.10;;;;;;;24.19;28.13;99218.13;4471840;32;20169;-82
2022/07/19 01:44:05;;;;;;;4.70;1.10;;;;;;;24.18;28.04;99213.72;4486134;32;20730;-82
2022/07/19 01:46:31;;;;;;;3.80;0.98;;;;;;;24.17;27.94;99211.22;4471820;32;20087;-81
2022/07/19 01:48:56;;;;;;;6.78;1.15;;;;;;;24.16;27.88;99207.66;4487327;32;20391;-82
2022/07/19 01:51:22;;;;;;;6.57;1.10;;;;;;;24.17;27.93;99205.81;4488199;32;20118;-82
2022/07/19 01:53:47;;;;;;;6.35;1.10;;;;;;;24.24;27.75;99201.47;4488001;32;20084;-82
2022/07/19 01:56:12;;;;;;;4.90;1.12;;;;;;;24.20;27.88;99195.56;4488088;32;20123;-81
2022/07/19 01:58:38;;;;;;;3.47;1.15;;;;;;;24.18;27.98;99202.13;4473797;32;20081;-82
2022/07/19 02:01:03;;;;;;;3.10;1.10;;;;;;;24.17;28.06;99211.22;4488003;32;20161;-82
2022/07/19 02:03:29;;;;;;;5.65;1.40;;;;;;;24.14;28.12;99202.44;4473842;32;20165;-82
2022/07/19 02:05:55;;;;;;;3.12;1.10;;;;;;;24.16;28.03;99206.81;4487983;32;20088;-82
2022/07/19 02:08:20;;;;;;;4.75;1.15;;;;;;;24.16;28.04;99206.81;4473895;32;20111;-82
2022/07/19 02:10:46;;;;;;;3.80;1.02;;;;;;;24.16;28.09;99209.50;4487974;32;20123;-81
2022/07/19 02:13:11;;;;;;;4.70;1.17;;;;;;;24.13;28.19;99211.53;4473591;32;20375;-81
2022/07/19 02:15:37;;;;;;;3.80;1.10;;;;;;;24.12;28.22;99219.75;4473636;32;20116;-81
2022/07/19 02:18:03;;;;;;;3.17;1.10;;;;;;;24.11;28.29;99218.91;4487993;32;20084;-82
2022/07/19 02:20:29;;;;;;;4.87;1.23;;;;;;;24.11;28.26;99212.69;4470885;32;20081;-82
2022/07/19 02:22:54;;;;;;;5.10;1.20;;;;;;;24.08;28.33;99215.69;4471116;32;20109;-82
2022/07/19 02:25:20;;;;;;;7.00;1.05;;;;;;;24.07;28.36;99220.25;4472199;32;20134;-82
2022/07/19 02:27:45;;;;;;;5.65;1.30;;;;;;;24.04;28.45;99219.72;4471009;32;20105;-82
2022/07/19 02:30:11;;;;;;;5.07;1.33;;;;;;;24.02;28.43;99222.56;4472149;32;20406;-82
2022/07/19 02:32:37;;;;;;;3.30;1.10;;;;;;;24.01;28.44;99223.56;4471297;32;20109;-82
2022/07/19 02:35:05;;;;;;;4.28;1.30;;;;;;;24.00;28.40;99221.88;4471035;32;20080;-82
2022/07/19 02:37:30;;;;;;;;;;;;;;;23.97;28.40;99224.03;4472418;32;20107;-82
2022/07/19 02:39:55;;;;;;;4.05;1.08;;;;;;;24.08;28.17;99216.53;4472226;32;19973;-82
2022/07/19 02:42:21;;;;;;;3.85;1.10;;;;;;;24.00;28.05;99221.03;4472195;32;20314;-82
2022/07/19 02:44:46;;;;;;;5.25;1.17;;;;;;;23.98;27.98;99221.19;4472080;32;20619;-82
2022/07/19 02:47:12;;;;;;;4.25;1.15;;;;;;;23.94;27.82;99217.97;4472253;32;20109;-82
2022/07/19 02:49:37;;;;;;;5.03;1.15;;;;;;;24.00;28.03;99224.56;4472008;32;20116;-82
2022/07/19 02:52:03;;;;;;;2.45;0.88;;;;;;;24.00;28.68;99223.72;4472072;32;20134;-82
2022/07/19 02:54:28;;;;;;;4.40;1.17;;;;;;;23.97;29.26;99224.03;4471987;32;20069;-82
2022/07/19 02:56:53;;;;;;;5.72;1.10;;;;;;;23.96;29.46;99225.06;4471931;32;20080;-82
2022/07/19 02:59:19;;;;;;;3.87;1.00;;;;;;;23.93;29.16;99227.06;4471616;32;20081;-82
2022/07/19 03:01:44;;;;;;;2.10;1.00;;;;;;;23.91;29.46;99220.12;4471800;32;20104;-82
2022/07/19 03:04:09;;;;;;;3.08;0.90;;;;;;;23.87;29.79;99224.97;4471892;32;20107;-81
2022/07/19 03:06:35;;;;;;;2.97;0.90;;;;;;;23.85;29.88;99224.28;4471973;32;20306;-82
2022/07/19 03:09:00;;;;;;;4.95;1.20;;;;;;;23.83;29.66;99223.63;4471923;32;20150;-81
2022/07/19 03:11:26;;;;;;;4.80;1.20;;;;;;;23.82;29.35;99223.78;4471878;32;20139;-81
2022/07/19 03:13:51;;;;;;;6.75;1.27;;;;;;;23.78;29.30;99228.66;4470438;32;20085;-82
2022/07/19 03:16:17;;;;;;;2.83;0.98;;;;;;;23.78;29.23;99225.94;4471846;32;20325;-81
2022/07/19 03:18:42;;;;;;;4.93;1.10;;;;;;;23.79;29.22;99234.84;4470537;32;20388;-81
2022/07/19 03:21:08;;;;;;;3.30;1.33;;;;;;;23.80;29.29;99237.41;4478545;32;20141;-81
2022/07/19 03:23:35;;;;;;;5.78;1.10;;;;;;;23.81;29.46;99240.94;4487574;32;20482;-82
2022/07/19 03:26:01;;;;;;;4.07;1.20;;;;;;;23.81;29.24;99236.38;4473251;32;20095;-81
2022/07/19 03:28:26;;;;;;;3.55;1.10;;;;;;;23.83;29.21;99238.91;4473263;32;20122;-81
2022/07/19 03:30:52;;;;;;;3.17;1.10;;;;;;;23.84;29.32;99241.47;4473189;32;20123;-81
2022/07/19 03:33:18;;;;;;;4.12;1.17;;;;;;;23.86;29.31;99242.12;4473432;32;20107;-81
2022/07/19 03:35:44;;;;;;;4.15;0.98;;;;;;;23.90;29.47;99248.06;4487501;32;20116;-81
2022/07/19 03:38:11;;;;;;;4.37;1.10;;;;;;;23.91;29.42;99241.66;4487671;32;20092;-81
2022/07/19 03:40:37;;;;;;;6.20;1.33;;;;;;;23.98;29.38;99248.09;4487338;32;20105;-81
2022/07/19 03:43:02;;;;;;;5.53;1.20;;;;;;;24.03;29.73;99245.78;4460074;32;20076;-81
2022/07/19 03:45:28;;;;;;;3.28;1.17;;;;;;;24.02;30.06;99244.09;4460019;32;20360;-81
2022/07/19 03:47:53;;;;;;;3.65;1.00;;;;;;;24.06;29.32;99252.69;4487227;32;20514;-81
2022/07/19 03:50:18;;;;;;;3.75;1.00;;;;;;;24.12;28.81;99246.66;4487247;32;20092;-82
2022/07/19 03:52:44;;;;;;;3.92;0.82;;;;;;;24.19;28.94;99246.87;4473291;32;20105;-81
2022/07/19 03:55:09;;;;;;;3.53;1.10;;;;;;;24.27;28.92;99258.53;4473312;32;20106;-81
2022/07/19 03:57:35;;;;;;;4.75;1.17;;;;;;;24.36;28.93;99254.03;4487549;32;20356;-81
2022/07/19 04:00:00;;;;;;;4.05;1.35;;;;;;;24.47;29.35;99258.28;4487427;32;20080;-81
2022/07/19 04:02:26;;;;;;;5.18;1.17;;;;;;;24.46;30.58;99259.31;4487492;32;20341;-82
2022/07/19 04:04:51;;;;;;;4.07;1.05;;;;;;;24.49;30.73;99264.34;4487202;32;20125;-81
2022/07/19 04:07:17;;;;;;;4.75;1.10;;;;;;;24.58;30.89;99260.72;4487147;32;20128;-82
2022/07/19 04:09:42;;;;;;;4.55;1.15;;;;;;;24.63;29.67;99265.66;4487304;32;20089;-82
2022/07/19 04:12:07;;;;;;;5.30;1.30;;;;;;;24.73;29.68;99269.87;4485940;32;20088;-82
2022/07/19 04:14:33;;;;;;;6.87;1.10;;;;;;;24.85;28.81;99266.88;4486990;32;20148;-82
2022/07/19 04:16:58;;;;;;;4.82;1.20;;;;;;;24.85;28.46;99272.28;4472984;32;20361;-81
2022/07/19 04:19:24;;;;;;;5.47;1.20;;;;;;;24.98;28.30;99274.53;4487092;32;20155;-81
2022/07/19 04:21:49;;;;;;;3.37;0.90;;;;;;;25.13;27.31;99270.16;4486894;32;20103;-81
2022/07/19 04:24:14;;;;;;;3.78;1.10;;;;;;;25.27;27.78;99268.72;4487083;32;20084;-81
2022/07/19 04:26:40;;;;;;;3.90;1.10;;;;;;;25.40;28.29;99266.38;4487040;32;20092;-81
2022/07/19 04:29:05;;;;;;;3.17;1.12;;;;;;;25.50;27.59;99272.44;4487162;32;20399;-81
2022/07/19 04:31:31;;;;;;;4.32;1.10;;;;;;;25.60;26.56;99271.44;4487107;32;20380;-81
2022/07/19 04:33:56;;;;;;;3.87;1.10;;;;;;;25.73;26.35;99274.47;4487105;32;20080;-81
2022/07/19 04:36:21;;;;;;;5.12;1.20;;;;;;;25.90;25.75;99276.13;4487215;32;20092;-82
2022/07/19 04:38:47;;;;;;;3.87;1.10;;;;;;;25.97;25.77;99275.47;4487167;32;20120;-81
2022/07/19 04:41:12;;;;;;;3.28;1.00;;;;;;;26.19;25.65;99271.22;4487266;32;20096;-81
2022/07/19 04:43:38;;;;;;;3.35;1.00;;;;;;;26.29;25.64;99271.88;4487107;32;20105;-81
2022/07/19 04:46:03;;;;;;;5.40;1.25;;;;;;;26.41;26.26;99277.75;4472970;32;20135;-81
2022/07/19 04:48:29;;;;;;;2.95;1.10;;;;;;;26.57;26.18;99269.56;4487138;32;20114;-81
2022/07/19 04:50:54;;;;;;;3.30;1.10;;;;;;;26.72;26.17;99264.31;4472802;32;20128;-81
2022/07/19 04:53:20;;;;;;;4.75;1.10;;;;;;;26.97;25.88;99273.12;4486931;32;20080;-81
2022/07/19 04:55:45;;;;;;;4.65;1.05;;;;;;;27.00;25.86;99267.34;4472761;32;20156;-81
2022/07/19 04:58:11;;;;;;;8.25;1.50;;;;;;;27.07;25.60;99262.09;4487104;32;20313;-81
2022/07/19 05:00:36;;;;;;;4.03;1.02;;;;;;;27.18;25.63;99266.25;4486939;32;20089;-81
2022/07/19 05:03:02;;;;;;;4.07;1.20;;;;;;;27.36;25.65;99261.41;4486877;32;20125;-82
2022/07/19 05:05:27;;;;;;;4.65;0.98;;;;;;;27.55;25.14;99260.09;4472416;32;20104;-82
2022/07/19 05:07:53;;;;;;;3.05;1.00;;;;;;;27.66;24.75;99261.50;4486705;32;20150;-82
2022/07/19 05:10:18;;;;;;;2.90;1.05;;;;;;;27.75;23.62;99263.13;4486520;32;20072;-82
2022/07/19 05:12:44;;;;;;;5.25;1.00;;;;;;;27.97;23.17;99272.28;4486571;32;20413;-82
2022/07/19 05:15:09;;;;;;;4.35;1.10;;;;;;;28.08;23.35;99272.84;4486515;32;20085;-82
2022/07/19 05:17:36;;;;;;;7.03;1.20;;;;;;;28.00;23.84;99271.03;4486479;32;20941;-81
2022/07/19 05:20:02;;;;;;;6.80;1.37;;;;;;;28.10;23.99;99274.31;4472414;32;20160;-81
2022/07/19 05:22:28;;;;;;;5.45;1.10;;;;;;;28.09;23.68;99269.13;4472388;32;20073;-81
2022/07/19 05:24:55;;;;;;;6.55;1.30;;;;;;;28.15;24.07;99269.19;4491699;32;20514;-81
2022/07/19 05:27:21;;;;;;;5.30;1.35;;;;;;;28.37;24.11;99267.41;4477502;32;20164;-80
2022/07/19 05:29:46;;;;;;;5.65;1.40;;;;;;;28.37;24.03;99266.59;4477333;32;20091;-81
2022/07/19 05:32:11;;;;;;;5.85;1.40;;;;;;;28.46;24.09;99270.88;4495404;31;20131;-81
2022/07/19 05:34:37;;;;;;;5.82;1.40;;;;;;;28.50;24.97;99272.19;4499388;31;20093;-80
2022/07/19 05:37:04;;;;;;;4.10;1.33;;;;;;;28.73;24.35;99266.69;4483663;31;20127;-81
2022/07/19 05:39:29;;;;;;;5.63;1.60;;;;;;;28.70;24.03;99269.75;4485483;31;20083;-80
2022/07/19 05:41:55;;;;;;;4.97;1.33;;;;;;;28.95;23.02;99275.69;4486713;31;20521;-81
2022/07/19 05:44:21;;;;;;;6.60;1.40;;;;;;;28.83;23.49;99267.22;4498336;31;20356;-83
2022/07/19 05:46:47;;;;;;;5.78;1.37;;;;;;;28.88;23.20;99268.50;4498587;31;20118;-83
2022/07/19 05:49:12;;;;;;;5.62;1.67;;;;;;;28.85;23.50;99264.31;4499332;31;20088;-81
2022/07/19 05:51:37;;;;;;;6.87;1.40;;;;;;;28.92;23.52;99270.69;4491406;31;20080;-80
2022/07/19 05:54:04;;;;;;;6.65;1.37;;;;;;;28.99;23.68;99262.59;4491099;31;20139;-80
2022/07/19 05:56:29;;;;;;;9.05;1.48;;;;;;;29.13;23.11;99263.63;4491225;31;20113;-79
2022/07/19 05:58:55;;;;;;;6.28;1.40;;;;;;;29.18;22.90;99272.88;4490076;32;20348;-79
2022/07/19 06:01:23;;;;;;;6.68;1.40;;;;;;;29.24;22.91;99268.53;4490226;32;20128;-84
2022/07/19 06:03:58;;;;;;;5.53;1.45;;;;;;;29.26;22.63;99271.91;4492823;31;20160;-77
2022/07/19 06:06:27;;;;;;;5.35;1.60;;;;;;;29.16;22.85;99266.78;4502589;31;20123;-81
2022/07/19 06:08:53;;;;;;;4.70;1.40;;;;;;;29.10;22.90;99262.09;4498990;31;20435;-79
2022/07/19 06:11:18;;;;;;;4.22;1.20;;;;;;;29.16;23.09;99266.78;4494744;31;20127;-80
2022/07/19 06:13:45;;;;;;;7.20;1.52;;;;;;;29.28;22.52;99272.53;4499605;31;20153;-82
2022/07/19 06:16:11;;;;;;;4.68;1.60;;;;;;;29.17;22.56;99265.78;4498210;31;20084;-79
2022/07/19 06:18:37;;;;;;;6.15;1.17;;;;;;;29.29;22.88;99268.81;4489645;32;20493;-81
2022/07/19 06:21:17;;;;;;;6.80;1.60;;;;;;;29.24;22.94;99275.84;4489372;32;20107;-77
2022/07/19 06:23:43;;;;;;;11.85;1.77;;;;;;;29.32;23.07;99271.16;4482079;31;20119;-77
2022/07/19 06:26:09;;;;;;;6.28;1.75;;;;;;;29.36;23.72;99272.44;4483708;32;20096;-76
2022/07/19 06:28:34;;;;;;;10.30;1.48;;;;;;;29.58;23.33;99278.69;4490455;32;20100;-76
2022/07/19 06:31:00;;;;;;;9.45;1.65;;;;;;;29.65;24.08;99281.50;4489102;32;20443;-77
2022/07/19 06:33:26;;;;;;;9.07;1.50;;;;;;;29.62;22.87;99273.72;4479706;31;20383;-80
2022/07/19 06:35:52;;;;;;;13.00;2.05;;;;;;;29.81;22.42;99276.84;4496541;31;20092;-78
2022/07/19 06:38:17;;;;;;;6.62;1.45;;;;;;;29.68;23.05;99274.81;4496808;31;20435;-78
2022/07/19 06:40:43;;;;;;;3.78;1.30;;;;;;;29.83;22.68;99277.50;4501798;31;20321;-80
2022/07/19 06:43:09;;;;;;;6.40;1.58;;;;;;;29.84;22.40;99279.97;4503625;31;20122;-80
2022/07/19 06:45:34;;;;;;;5.97;1.60;;;;;;;29.74;22.66;99282.22;4503320;31;20118;-80
2022/07/19 06:47:59;;;;;;;8.20;1.37;;;;;;;29.73;22.53;99275.94;4502425;31;20103;-80
2022/07/19 06:50:25;;;;;;;7.05;1.50;;;;;;;29.85;22.78;99278.97;4503459;31;20084;-80
2022/07/19 06:52:50;;;;;;;8.65;1.42;;;;;;;29.91;22.86;99278.16;4502095;31;20088;-80
2022/07/19 06:55:16;;;;;;;6.55;1.40;;;;;;;30.01;22.55;99266.97;4503396;31;20246;-80
2022/07/19 06:57:42;;;;;;;7.00;1.98;;;;;;;30.02;22.36;99270.50;4503540;31;20079;-80
2022/07/19 07:00:09;;;;;;;11.07;1.77;;;;;;;30.11;22.20;99267.44;4489213;31;20115;-80
2022/07/19 07:02:38;;;;;;;4.68;1.33;;;;;;;30.16;22.11;99264.97;4503362;31;20179;-80
2022/07/19 07:05:05;;;;;;;4.25;1.33;;;;;;;30.15;21.87;99260.59;4489077;31;20100;-80
2022/07/19 07:07:30;;;;;;;8.15;1.60;;;;;;;30.22;21.86;99267.94;4503285;31;20092;-80
2022/07/19 07:09:56;;;;;;;7.05;1.75;;;;;;;30.40;21.35;99260.13;4503373;31;20080;-80
2022/07/19 07:12:21;;;;;;;5.28;1.48;;;;;;;30.52;20.75;99258.53;4503269;31;20336;-80
2022/07/19 07:14:47;;;;;;;8.60;1.62;;;;;;;30.42;20.61;99270.81;4503330;31;20122;-80
2022/07/19 07:17:12;;;;;;;8.77;1.52;;;;;;;30.44;21.08;99258.69;4503348;31;20079;-80
2022/07/19 07:19:37;;;;;;;5.12;1.45;;;;;;;30.56;20.81;99265.25;4503182;31;20085;-80
2022/07/19 07:22:03;;;;;;;6.75;1.67;;;;;;;30.54;20.78;99259.16;4503075;31;20530;-80
2022/07/19 07:24:29;;;;;;;5.87;1.40;;;;;;;30.36;21.61;99259.69;4488996;31;20108;-80
2022/07/19 07:26:54;;;;;;;5.82;1.48;;;;;;;30.35;21.29;99259.91;4503217;31;20084;-80
2022/07/19 07:29:20;;;;;;;5.43;1.45;;;;;;;30.41;22.06;99260.97;4488987;31;20106;-80
2022/07/19 07:31:45;;;;;;;6.18;1.60;;;;;;;30.49;21.86;99255.38;4503323;31;20446;-79
2022/07/19 07:34:11;;;;;;;9.50;2.12;;;;;;;30.56;21.91;99256.25;4503132;31;20119;-80
2022/07/19 07:36:36;;;;;;;9.45;3.20;;;;;;;30.72;21.61;99249.62;4488884;31;20369;-80
2022/07/19 07:39:02;;;;;;;6.40;1.70;;;;;;;30.85;21.54;99236.06;4488794;31;20110;-80
2022/07/19 07:41:28;;;;;;;7.03;1.80;;;;;;;30.74;21.30;99251.09;4503155;31;20100;-80
2022/07/19 07:43:53;;;;;;;7.75;1.70;;;;;;;30.89;20.92;99250.97;4503552;31;20581;-80
2022/07/19 07:46:19;;;;;;;7.82;1.70;;;;;;;30.94;20.95;99250.34;4503250;31;20120;-80
2022/07/19 07:48:44;;;;;;;7.87;1.50;;;;;;;31.05;20.93;99254.37;4488998;31;20083;-80
2022/07/19 07:51:10;;;;;;;4.70;1.40;;;;;;;30.99;20.68;99252.47;4503299;31;20092;-80
2022/07/19 07:53:35;;;;;;;7.70;1.50;;;;;;;31.16;20.44;99253.78;4503228;31;20119;-80
2022/07/19 07:56:01;;;;;;;4.87;1.37;;;;;;;31.25;20.33;99257.13;4503309;31;20337;-80
2022/07/19 07:58:26;;;;;;;6.32;1.67;;;;;;;31.15;20.50;99255.63;4488952;31;20355;-80
2022/07/19 08:00:52;;;;;;;8.43;1.65;;;;;;;31.32;20.19;99255.25;4503350;31;20168;-80
2022/07/19 08:03:17;;;;;;;4.10;1.60;;;;;;;31.25;20.22;99254.41;4503225;31;20092;-80
2022/07/19 08:05:47;;;;;;;4.75;1.40;;;;;;;31.34;19.96;99255.88;4488894;31;20096;-80
2022/07/19 08:08:13;;;;;;;6.20;1.20;;;;;;;31.29;20.19;99255.66;4503272;31;20092;-80
2022/07/19 08:10:39;;;;;;;5.13;1.30;;;;;;;31.40;19.43;99255.06;4503343;31;20103;-80
2022/07/19 08:13:04;;;;;;;6.85;1.80;;;;;;;31.39;19.78;99249.81;4503166;31;20446;-80
2022/07/19 08:15:29;;;;;;;6.40;1.50;;;;;;;31.33;19.32;99251.47;4503165;31;20084;-80
2022/07/19 08:17:55;;;;;;;8.73;1.67;;;;;;;31.32;19.36;99253.37;4488852;31;20108;-80
2022/07/19 08:20:20;;;;;;;5.20;1.40;;;;;;;31.27;19.27;99258.59;4502982;31;20113;-78
2022/07/19 08:22:46;;;;;;;7.70;1.58;;;;;;;31.44;19.10;99252.75;4502913;31;20096;-80
2022/07/19 08:25:14;;;;;;;5.12;1.33;;;;;;;31.39;19.17;99247.09;4502929;31;20111;-80
2022/07/19 08:27:40;;;;;;;7.43;1.42;;;;;;;31.31;19.40;99254.44;4502928;31;20704;-80
2022/07/19 08:30:06;;;;;;;4.47;1.33;;;;;;;31.45;18.92;99258.00;4502756;31;20104;-80
2022/07/19 08:32:32;;;;;;;5.72;1.45;;;;;;;31.34;19.44;99254.00;4502836;31;20122;-80
2022/07/19 08:34:57;;;;;;;8.45;1.90;;;;;;;31.47;19.28;99253.22;4502659;31;20084;-80
2022/07/19 08:37:22;;;;;;;6.93;1.55;;;;;;;31.54;19.29;99251.34;4502723;31;20069;-80
2022/07/19 08:39:48;;;;;;;5.57;1.60;;;;;;;31.46;19.41;99247.97;4502718;31;20123;-80
2022/07/19 08:42:20;;;;;;;5.00;1.45;;;;;;;31.37;19.21;99250.03;4502731;31;20146;-80
2022/07/19 08:44:47;;;;;;;5.68;1.27;;;;;;;31.35;19.06;99247.53;4502704;31;20092;-80
2022/07/19 08:47:13;;;;;;;6.00;1.45;;;;;;;31.38;19.68;99243.53;4502639;31;20085;-80
2022/07/19 08:49:42;;;;;;;101.87;9.27;;;;;;;31.50;19.36;99244.63;4502664;31;20107;-80
2022/07/19 08:52:07;;;;;;;7.45;1.60;;;;;;;31.55;19.37;99238.56;4488329;31;20108;-80
2022/07/19 08:54:33;;;;;;;10.57;1.30;;;;;;;31.57;19.39;99243.81;4488276;31;20079;-80
2022/07/19 08:59:43;;;;;;;3.53;1.00;;;;;;;31.70;18.52;99236.47;4502426;31;20134;-80
2022/07/19 09:02:08;;;;;;;6.90;1.10;;;;;;;31.64;18.54;99239.19;4502597;31;20092;-80
2022/07/19 09:04:34;;;;;;;7.07;1.40;;;;;;;31.50;19.12;99241.06;4502523;31;20368;-79
2022/07/19 09:06:59;;;;;;;5.95;1.10;;;;;;;31.51;19.08;99237.31;4502456;31;20496;-80
2022/07/19 09:09:29;;;;;;;5.80;1.25;;;;;;;31.47;18.69;99234.16;4502558;31;20246;-80
2022/07/19 09:11:58;;;;;;;5.18;1.30;;;;;;;31.44;18.65;99225.53;4502432;31;20096;-80
2022/07/19 09:14:25;;;;;;;5.50;1.15;;;;;;;31.38;18.88;99227.19;4488013;31;20163;-80
2022/07/19 09:17:01;;;;;;;5.72;1.12;;;;;;;31.38;18.89;99226.38;4502293;31;20072;-80
2022/07/19 09:19:27;;;;;;;4.80;0.95;;;;;;;31.54;18.89;99223.25;4488159;31;20108;-80
2022/07/19 09:22:19;;;;;;;3.70;1.10;;;;;;;31.54;19.04;99224.13;4487926;31;20471;-80
2022/07/19 09:24:50;;;;;;;4.07;1.12;;;;;;;31.72;18.81;99231.66;4498563;31;20167;-80
2022/07/19 09:27:17;;;;;;;5.72;1.35;;;;;;;31.60;18.82;99222.41;4502228;31;20083;-80
2022/07/19 09:29:46;;;;;;;4.78;1.15;;;;;;;31.71;19.18;99227.22;4502226;31;20103;-80
2022/07/19 09:32:11;;;;;;;3.22;0.90;;;;;;;31.60;18.98;99227.84;4487963;31;20096;-80
2022/07/19 09:34:42;;;;;;;3.92;1.15;;;;;;;31.59;18.92;99228.91;4502058;31;20152;-80
2022/07/19 09:37:15;;;;;;;4.62;1.10;;;;;;;31.65;18.88;99233.53;4501994;31;20096;-80
2022/07/19 09:39:44;;;;;;;3.92;0.98;;;;;;;31.57;18.89;99227.47;4502109;31;20371;-80
2022/07/19 09:42:11;;;;;;;3.15;1.10;;;;;;;31.63;18.68;99226.63;4502032;31;20104;-80
2022/07/19 09:44:37;;;;;;;2.75;1.10;;;;;;;31.49;18.98;99220.34;4487622;31;20143;-80
2022/07/19 09:47:03;;;;;;;4.80;1.10;;;;;;;31.58;18.93;99223.69;4487554;31;20084;-80
2022/07/19 09:49:28;;;;;;;3.42;1.12;;;;;;;31.68;19.25;99213.19;4501889;31;20118;-79
2022/07/19 09:51:55;;;;;;;4.45;1.37;;;;;;;31.62;19.63;99217.63;4501896;31;20132;-80
2022/07/19 09:54:23;;;;;;;5.97;1.40;;;;;;;31.61;19.35;99218.66;4487441;31;20100;-80
2022/07/19 09:56:50;;;;;;;4.15;1.17;;;;;;;31.62;19.27;99211.31;4501797;31;20117;-80
2022/07/19 09:59:16;;;;;;;3.65;1.20;;;;;;;31.58;19.69;99208.16;4501824;31;20104;-80
2022/07/19 10:01:43;;;;;;;5.97;1.17;;;;;;;31.60;19.76;99206.06;4501776;31;20107;-79
2022/07/19 10:04:11;;;;;;;3.35;1.02;;;;;;;31.55;19.39;99212.16;4501808;31;20131;-80
2022/07/19 10:06:38;;;;;;;2.87;1.10;;;;;;;31.42;19.91;99197.69;4487345;31;20087;-80
2022/07/19 10:09:05;;;;;;;5.10;1.40;;;;;;;31.42;19.73;99209.41;4487243;31;20172;-80
2022/07/19 10:11:31;;;;;;;3.80;1.12;;;;;;;31.50;19.74;99201.03;4489124;31;20116;-80
2022/07/19 10:13:56;;;;;;;2.83;1.10;;;;;;;31.49;19.77;99199.38;4489417;31;20146;-80
2022/07/19 10:16:46;;;;;;;5.07;1.23;;;;;;;31.58;19.45;99200.00;4503843;31;20123;-79
2022/07/19 10:19:32;;;;;;;5.72;1.33;;;;;;;31.49;19.58;99204.00;4489758;31;20165;-80
2022/07/19 10:21:58;;;;;;;4.57;1.35;;;;;;;31.59;19.74;99198.13;4503694;31;20102;-80
2022/07/19 10:25:10;;;;;;;4.53;1.20;;;;;;;31.51;19.67;99201.91;4503739;31;20138;-80
2022/07/19 10:27:41;;;;;;;3.05;1.20;;;;;;;31.60;19.49;99195.19;4423114;32;20086;-80
2022/07/19 10:30:12;;;;;;;7.22;1.42;;;;;;;31.63;19.67;99193.94;4423609;32;20153;-80
2022/07/19 10:32:45;;;;;;;3.47;1.02;;;;;;;31.56;19.52;99196.66;4423547;32;20139;-80
2022/07/19 10:35:27;;;;;;;4.90;1.23;;;;;;;31.71;19.32;99199.16;4423504;32;20169;-80
2022/07/19 10:38:02;;;;;;;3.40;1.17;;;;;;;31.44;19.47;99195.59;4423594;32;20289;-80
2022/07/19 10:40:48;;;;;;;6.10;1.23;;;;;;;31.63;19.71;99194.75;4423477;32;20169;-80
2022/07/19 10:43:15;;;;;;;4.30;1.30;;;;;;;31.76;19.65;99193.94;4423629;32;20140;-80
2022/07/19 10:46:02;;;;;;;5.12;1.30;;;;;;;31.79;19.43;99198.09;4423426;32;20094;-80
2022/07/19 10:48:46;;;;;;;6.22;1.40;;;;;;;31.85;19.09;99195.38;4412937;32;20108;-80
2022/07/19 10:51:30;;;;;;;5.80;1.30;;;;;;;31.97;19.09;99190.12;4410578;32;20094;-80
2022/07/19 10:53:57;;;;;;;4.57;1.40;;;;;;;32.04;18.98;99185.50;4410622;32;20125;-80
2022/07/19 10:56:28;;;;;;;3.03;1.10;;;;;;;31.95;18.76;99184.06;4410634;32;20112;-80
2022/07/19 10:58:53;;;;;;;3.87;1.30;;;;;;;32.07;18.90;99179.63;4410700;32;20508;-80
2022/07/19 11:01:20;;;;;;;3.95;1.23;;;;;;;31.98;18.93;99175.44;4423307;32;20126;-80
2022/07/19 11:03:47;;;;;;;7.10;1.55;;;;;;;31.96;19.04;99169.34;4449433;31;20104;-80
2022/07/19 11:06:22;;;;;;;7.55;1.48;;;;;;;31.97;19.39;99168.31;4489186;31;20084;-80
2022/07/19 11:08:48;;;;;;;5.25;1.25;;;;;;;32.00;19.08;99172.50;4489127;31;20152;-80
2022/07/19 11:11:17;;;;;;;4.95;1.40;;;;;;;32.11;19.08;99171.88;4488947;31;20100;-80
2022/07/19 11:13:44;;;;;;;3.97;1.23;;;;;;;31.97;19.11;99168.31;4489094;31;20115;-80
2022/07/19 11:16:10;;;;;;;4.07;1.37;;;;;;;32.10;18.85;99162.87;4503359;31;20419;-80
2022/07/19 11:18:35;;;;;;;4.78;1.52;;;;;;;32.12;18.98;99162.63;4503280;31;20111;-80
2022/07/19 11:21:03;;;;;;;5.57;1.30;;;;;;;32.18;18.87;99156.34;4488355;31;454114;-80
2022/07/19 11:23:30;;;;;;;5.75;1.40;;;;;;;32.15;18.98;99155.94;4489095;31;20183;-80
2022/07/19 11:26:20;;;;;;;4.18;1.50;;;;;;;32.25;19.02;99151.69;4503379;31;20134;-80
2022/07/19 11:28:47;;;;;;;7.65;1.42;;;;;;;32.28;18.63;99151.25;4489239;31;20072;-80
2022/07/19 11:31:20;;;;;;;4.90;1.30;;;;;;;32.24;18.84;99154.63;4503304;31;20088;-80
2022/07/19 11:33:47;;;;;;;5.95;1.50;;;;;;;32.34;18.74;99146.84;4488865;31;20131;-80
2022/07/19 11:36:15;;;;;;;9.48;1.90;;;;;;;32.40;18.75;99147.87;4488981;31;20155;-80